Farmington, NM

5:09 PM MST on March 02, 2015 (GMT -0700)
Cortez Municipal | Change Station
CLOSE
Current Station
Airport
Location: Cortez,
Elevation: 5915 ft
Nearby Weather Stations

Elev 5915 ft 37.31 °N, 108.63 °W | Updated 16 minutes ago

Mostly Cloudy
Mostly Cloudy
40 °F
Feels Like 32 °F
N
13
Wind Variable Wind from SSW
Gusts 22 mph

Today
High -- | Low -- °F
--% Chance of Precip.
Yesterday
High -- | Low -- °F
Precip. -- in
6:42 AM 6:07 PM
Waxing Gibbous, 93% visible
Pressure 29.74 in
Visibility 4.0 miles
Clouds Mostly Cloudy 2600 ft
Overcast 3100 ft
Windchill 32 °F
Dew Point 36 °F
Humidity 86%
Rainfall 0.02 in
Snow Depth Not available.
UV 0 out of 12
Pollen 2.40 out of 12
Air Quality Not available.
Flu Activity Not available.
METAR KCEZ 022353Z AUTO 21011G19KT 4SM RA BR BKN026 OVC031 04/02 A2980 RMK AO2 RAB41 SLP069 P0000 60001 T00440022 10111 20044 53016

More Conditions Fewer Conditions

Pressure 29.74 in
Visibility 4.0 miles
Clouds Mostly Cloudy 2600 ft
Overcast 3100 ft
Windchill 32 °F
Dew Point 36 °F
Humidity 86%
Rainfall 0.02 in
Snow Depth Not available.
UV 0 out of 12
Pollen 2.40 out of 12
Air Quality Not available.
Flu Activity Not available.
METAR KCEZ 022353Z AUTO 21011G19KT 4SM RA BR BKN026 OVC031 04/02 A2980 RMK AO2 RAB41 SLP069 P0000 60001 T00440022 10111 20044 53016

More Conditions Fewer Conditions

Nowcast | as of 4:24 PM MST on March 2, 2015

Rain and high elevation snow showers will continue to expand in areal coverage over the western half of New Mexico through the remainder of the afternoon and into the evening. Isolated thunderstorms cannot be ruled out in The Four Corners region as well as near and west of the Continental Divide. Snow accumulation levels will generally vary between 8000 to 9000 feet with a dusting to a couple inches of new snow expected at the highest elevations and a few to several hundredths of an inch of rainfall below. Pockets of heavy rain will be most common from Farmington...Shiprock south to Gallup...Zuni...Fence Lake...Luna and Glenwood. Areas of moderate to occasionally heavy snow will favor the higher west and southwest slopes of mountain ranges in northwest New Mexico where visibility will periodically be reduced.

×

10-Day Weather Forecast

Almanac

Astronomy

Mar. 02, 2015 Rise Set
Actual Time
Civil Twilight
Nautical Twilight
Astronomical Twilight
Moon
Length of Visible Light
Length of Day
Tomorrow will be .
, % of the Moon is Illuminated

Today's Extremes

State Highs State Lows

Community

WunderPhotos

Upload Photos

1,801,999 photos uploaded!

WunderBlogs® & News

Nearby

Air Quality

  Air Quality AQ Index Pollutant
Not available.

Snow Depth

Station Depth Elevation

Earthquake Activity

City Distance Mag. Time & Date
Minimum magnitude displayed is 2.5.

Coastal Water Temperatures

Place Temperature

Nearby Weather Stations